createdAt,value
2018-03-06T00:02:09.870Z,62.65
2018-03-06T00:04:40.925Z,66.68
2018-03-06T00:07:11.903Z,64.00
2018-03-06T00:09:42.931Z,67.20
2018-03-06T00:12:14.048Z,63.95
2018-03-06T00:14:45.097Z,69.90
2018-03-06T00:17:16.147Z,60.53
2018-03-06T00:19:47.133Z,63.50
2018-03-06T00:22:18.142Z,60.73
2018-03-06T00:24:49.171Z,61.22
2018-03-06T00:27:20.220Z,61.58
2018-03-06T00:29:51.259Z,57.88
2018-03-06T00:32:22.386Z,56.70
2018-03-06T00:34:53.329Z,63.58
2018-03-06T00:37:24.350Z,61.53
2018-03-06T00:39:55.331Z,61.65
2018-03-06T00:42:26.368Z,62.57
2018-03-06T00:44:57.440Z,61.25
2018-03-06T00:47:28.439Z,65.65
2018-03-06T00:49:59.458Z,65.40
2018-03-06T00:52:30.433Z,65.28
2018-03-06T00:55:01.443Z,64.03
2018-03-06T00:57:32.459Z,60.67
2018-03-06T01:00:03.884Z,67.15
2018-03-06T01:02:34.887Z,67.50
2018-03-06T01:05:05.893Z,63.78
2018-03-06T01:07:36.909Z,67.97
2018-03-06T01:10:07.922Z,58.17
2018-03-06T01:12:38.969Z,59.75
2018-03-06T01:15:09.979Z,63.58
2018-03-06T01:17:41.020Z,61.30
2018-03-06T01:20:12.011Z,57.40
2018-03-06T01:22:43.036Z,58.83
2018-03-06T01:25:14.190Z,60.03
2018-03-06T01:27:45.198Z,59.40
2018-03-06T01:30:16.272Z,60.42
2018-03-06T01:32:47.284Z,62.08
2018-03-06T01:35:18.263Z,58.13
2018-03-06T01:37:49.268Z,59.53
2018-03-06T01:40:20.276Z,55.85
2018-03-06T01:42:51.295Z,57.35
2018-03-06T01:45:22.297Z,49.25
2018-03-06T01:47:53.338Z,51.35
2018-03-06T01:50:24.427Z,56.72
2018-03-06T01:52:55.444Z,58.35
2018-03-06T01:55:26.461Z,58.13
2018-03-06T01:57:57.477Z,55.12
2018-03-06T02:00:28.508Z,54.33
2018-03-06T02:02:59.509Z,59.70
2018-03-06T02:05:30.497Z,60.60
2018-03-06T02:08:01.504Z,55.47
2018-03-06T02:10:32.481Z,51.90
2018-03-06T02:13:03.487Z,64.37
2018-03-06T02:15:34.513Z,58.80
2018-03-06T02:18:05.550Z,51.95
2018-03-06T02:20:37.323Z,51.78
2018-03-06T02:23:08.367Z,56.10
2018-03-06T02:25:39.416Z,58.83
2018-03-06T02:28:10.432Z,58.67
2018-03-06T02:30:41.479Z,56.80
2018-03-06T02:33:12.541Z,55.67
2018-03-06T02:35:43.543Z,57.83
2018-03-06T02:38:14.581Z,55.55
2018-03-06T02:40:45.579Z,53.42
2018-03-06T02:43:16.585Z,55.33
2018-03-06T02:45:47.576Z,60.28
2018-03-06T02:48:18.596Z,53.10
2018-03-06T02:50:49.651Z,53.58
2018-03-06T02:53:20.750Z,55.67
2018-03-06T02:55:51.768Z,58.10
2018-03-06T02:58:22.812Z,59.80
2018-03-06T03:00:53.857Z,55.53
2018-03-06T03:03:24.865Z,59.60
2018-03-06T03:05:55.940Z,56.85
2018-03-06T03:08:26.953Z,58.22
2018-03-06T03:10:57.988Z,57.72
2018-03-06T03:13:29.036Z,56.40
2018-03-06T03:16:00.053Z,57.97
2018-03-06T03:18:31.927Z,57.58
2018-03-06T03:21:02.925Z,59.05
2018-03-06T03:23:33.971Z,64.03
2018-03-06T03:26:05.008Z,58.95
2018-03-06T03:28:36.036Z,61.88
2018-03-06T03:31:07.072Z,61.50
2018-03-06T03:33:38.075Z,59.67
2018-03-06T03:36:09.090Z,57.20
2018-03-06T03:38:40.112Z,60.58
2018-03-06T03:41:11.192Z,69.30
2018-03-06T03:43:42.229Z,58.08
2018-03-06T03:46:13.251Z,61.50
2018-03-06T03:48:44.255Z,58.60
2018-03-06T03:51:15.288Z,63.77
2018-03-06T03:53:46.306Z,64.70
2018-03-06T03:56:17.319Z,57.38
2018-03-06T03:58:48.324Z,58.03
2018-03-06T04:01:19.333Z,60.00
2018-03-06T04:03:50.299Z,60.25
2018-03-06T04:06:21.335Z,61.53
2018-03-06T04:08:52.362Z,62.72
2018-03-06T04:11:23.396Z,63.83
2018-03-06T04:13:54.442Z,64.65
2018-03-06T04:16:25.411Z,62.00
2018-03-06T04:18:56.404Z,64.17
2018-03-06T04:21:27.401Z,60.53
2018-03-06T04:23:58.413Z,65.75
2018-03-06T04:26:29.396Z,59.58
2018-03-06T04:29:00.411Z,60.50
2018-03-06T04:31:31.469Z,62.60
2018-03-06T04:34:02.464Z,64.45
2018-03-06T04:36:33.479Z,63.30
2018-03-06T04:39:04.607Z,61.40
2018-03-06T04:41:35.596Z,65.28
2018-03-06T04:44:06.616Z,61.07
2018-03-06T04:46:37.630Z,65.72
2018-03-06T04:49:08.627Z,64.97
2018-03-06T04:51:39.700Z,57.40
2018-03-06T04:54:10.745Z,69.72
2018-03-06T04:56:41.761Z,60.38
2018-03-06T04:59:12.750Z,61.92
2018-03-06T05:01:43.747Z,66.77
2018-03-06T05:04:14.780Z,61.65
2018-03-06T05:06:45.794Z,67.07
2018-03-06T05:09:16.804Z,69.40
2018-03-06T05:11:47.789Z,74.43
2018-03-06T05:14:18.816Z,64.50
2018-03-06T05:16:49.819Z,65.03
2018-03-06T05:19:20.868Z,67.27
2018-03-06T05:21:51.921Z,68.03
2018-03-06T05:24:22.931Z,62.65
2018-03-06T05:26:54.021Z,66.60
2018-03-06T05:29:25.017Z,69.28
2018-03-06T05:31:56.045Z,62.15
2018-03-06T05:34:27.035Z,61.47
2018-03-06T05:36:58.041Z,67.40
2018-03-06T05:39:29.026Z,58.15
2018-03-06T05:42:00.057Z,65.57
2018-03-06T05:44:31.008Z,61.78
2018-03-06T05:47:02.041Z,67.13
2018-03-06T05:49:33.048Z,60.22
2018-03-06T05:52:04.067Z,63.70
2018-03-06T05:54:35.090Z,68.37
2018-03-06T05:57:06.073Z,66.82
2018-03-06T05:59:37.097Z,58.80
2018-03-06T06:02:08.105Z,66.45
2018-03-06T06:04:39.129Z,66.43
2018-03-06T06:07:10.134Z,65.72
2018-03-06T06:09:41.155Z,65.70
2018-03-06T06:12:13.096Z,66.87
2018-03-06T06:14:44.095Z,68.57
2018-03-06T06:17:15.093Z,64.47
2018-03-06T06:19:46.063Z,67.37
2018-03-06T06:22:17.053Z,68.50
2018-03-06T06:24:48.061Z,62.67
2018-03-06T06:27:19.074Z,63.95
2018-03-06T06:29:50.069Z,64.63
2018-03-06T06:32:21.095Z,70.00
2018-03-06T06:34:52.067Z,57.80
2018-03-06T06:37:23.081Z,60.37
2018-03-06T06:39:54.083Z,62.30
2018-03-06T06:42:25.110Z,64.23
2018-03-06T06:44:56.084Z,63.43
2018-03-06T06:47:27.107Z,60.20
2018-03-06T06:49:58.131Z,67.10
2018-03-06T06:52:29.150Z,60.27
2018-03-06T06:55:00.161Z,64.60
2018-03-06T06:57:31.120Z,57.03
2018-03-06T07:00:02.146Z,65.47
2018-03-06T07:02:33.099Z,62.83
2018-03-06T07:05:04.129Z,64.53
2018-03-06T07:07:35.074Z,57.73
2018-03-06T07:10:06.085Z,67.07
2018-03-06T07:12:37.097Z,61.73
2018-03-06T07:15:08.117Z,66.97
2018-03-06T07:17:39.180Z,63.13
2018-03-06T07:20:10.141Z,65.03
2018-03-06T07:22:41.148Z,61.60
2018-03-06T07:25:12.113Z,61.80
2018-03-06T07:27:43.147Z,57.60
2018-03-06T07:30:14.107Z,62.33
2018-03-06T07:32:45.111Z,62.13
2018-03-06T07:35:16.104Z,58.90
2018-03-06T07:37:47.155Z,58.17
2018-03-06T07:40:18.166Z,59.00
2018-03-06T07:42:49.177Z,63.07
2018-03-06T07:45:20.248Z,62.43
2018-03-06T07:47:51.251Z,56.80
2018-03-06T07:50:22.295Z,52.20
2018-03-06T07:52:53.310Z,58.07
2018-03-06T07:55:24.314Z,67.60
2018-03-06T07:57:55.367Z,56.77
2018-03-06T08:00:26.409Z,55.83
2018-03-06T08:02:57.407Z,64.40
2018-03-06T08:05:28.449Z,58.00
2018-03-06T08:07:59.452Z,60.87
2018-03-06T08:10:30.468Z,66.53
2018-03-06T08:13:01.443Z,62.97
2018-03-06T08:15:32.444Z,65.30
2018-03-06T08:18:03.429Z,58.50
2018-03-06T08:20:34.442Z,60.30
2018-03-06T08:23:05.464Z,55.93
2018-03-06T08:25:36.457Z,63.57
2018-03-06T08:28:07.452Z,58.43
2018-03-06T08:33:32.894Z,62.13
2018-03-06T08:36:03.883Z,56.73
2018-03-06T08:38:34.870Z,51.13
2018-03-06T08:41:05.807Z,55.93
2018-03-06T08:43:36.779Z,57.07
2018-03-06T08:46:07.781Z,56.60
2018-03-06T08:48:38.766Z,56.40
2018-03-06T08:51:09.745Z,50.43
2018-03-06T08:53:40.684Z,53.40
2018-03-06T08:56:11.675Z,54.80
2018-03-06T08:58:42.666Z,51.77
2018-03-06T09:01:13.689Z,54.70
2018-03-06T09:03:44.751Z,57.77
2018-03-06T09:06:15.730Z,57.23
2018-03-06T09:08:46.721Z,61.73
2018-03-06T09:11:17.709Z,57.03
2018-03-06T09:13:48.709Z,57.43
2018-03-06T09:16:19.705Z,57.23
2018-03-06T09:18:50.773Z,55.67
2018-03-06T09:21:21.816Z,54.90
2018-03-06T09:23:52.781Z,52.83
2018-03-06T09:26:23.771Z,61.90
2018-03-06T09:28:54.802Z,55.77
2018-03-06T09:31:25.837Z,57.73
2018-03-06T09:33:56.842Z,56.23
2018-03-06T09:36:27.887Z,53.87
2018-03-06T09:38:58.824Z,56.03
2018-03-06T09:41:29.841Z,58.63
2018-03-06T09:44:00.818Z,55.73
2018-03-06T09:46:31.822Z,60.47
2018-03-06T09:49:02.893Z,57.23
2018-03-06T09:51:33.844Z,54.53
2018-03-06T09:54:04.875Z,56.17
2018-03-06T09:56:35.918Z,53.33
2018-03-06T09:59:06.925Z,56.93
2018-03-06T10:01:37.949Z,54.43
2018-03-06T10:04:08.927Z,59.33
2018-03-06T10:06:39.904Z,61.87
2018-03-06T10:09:10.927Z,64.13
2018-03-06T10:11:41.963Z,53.13
2018-03-06T10:14:12.959Z,54.57
2018-03-06T10:16:43.952Z,56.87
2018-03-06T10:19:14.947Z,56.70
2018-03-06T10:21:45.945Z,56.37
2018-03-06T10:24:16.961Z,54.97
2018-03-06T10:26:47.977Z,58.80
2018-03-06T10:29:19.028Z,53.07
2018-03-06T10:31:50.068Z,53.30
2018-03-06T10:34:21.096Z,58.83
2018-03-06T10:36:52.152Z,52.80
2018-03-06T10:39:23.137Z,58.00
2018-03-06T10:41:54.185Z,54.87
2018-03-06T10:44:25.168Z,60.57
2018-03-06T10:46:56.221Z,56.87
2018-03-06T10:49:27.229Z,54.27
2018-03-06T10:51:58.254Z,61.37
2018-03-06T10:54:29.244Z,60.50
2018-03-06T10:57:00.230Z,64.63
2018-03-06T10:59:31.222Z,55.90
2018-03-06T11:02:03.027Z,56.87
2018-03-06T11:04:34.016Z,58.33
2018-03-06T11:07:05.017Z,54.13
2018-03-06T11:09:36.026Z,53.63
2018-03-06T11:12:06.979Z,55.07
2018-03-06T11:14:37.969Z,57.27
2018-03-06T11:17:08.907Z,58.67
2018-03-06T11:19:39.884Z,60.10
2018-03-06T11:22:10.892Z,59.27
2018-03-06T11:24:41.912Z,51.53
2018-03-06T11:27:12.918Z,61.90
2018-03-06T11:29:43.945Z,53.70
2018-03-06T11:32:14.957Z,57.33
2018-03-06T11:34:45.925Z,50.43
2018-03-06T11:37:16.901Z,53.60
2018-03-06T11:39:47.883Z,56.10
2018-03-06T11:42:18.944Z,48.57
2018-03-06T11:44:49.932Z,54.00
2018-03-06T11:47:20.949Z,53.27
2018-03-06T11:49:51.916Z,54.63
2018-03-06T11:52:22.956Z,57.80
2018-03-06T11:54:53.927Z,54.27
2018-03-06T11:57:24.934Z,58.70
2018-03-06T11:59:55.903Z,51.53
2018-03-06T12:02:26.915Z,52.70
2018-03-06T12:04:57.956Z,72.43
2018-03-06T12:07:28.935Z,53.03
2018-03-06T12:09:59.915Z,54.20
2018-03-06T12:12:30.908Z,53.00
2018-03-06T12:15:01.875Z,57.90
2018-03-06T12:17:32.850Z,59.60
2018-03-06T12:20:03.923Z,51.77
2018-03-06T12:22:34.928Z,56.87
2018-03-06T12:25:05.936Z,64.60
2018-03-06T12:27:36.925Z,49.67
2018-03-06T12:30:07.961Z,52.63
2018-03-06T12:32:38.937Z,52.97
2018-03-06T12:35:09.964Z,58.10
2018-03-06T12:37:41.017Z,56.27
2018-03-06T12:40:12.080Z,54.40
2018-03-06T12:42:43.106Z,51.73
2018-03-06T12:45:14.081Z,52.43
2018-03-06T12:47:45.071Z,53.93
2018-03-06T12:50:16.081Z,54.77
2018-03-06T12:52:47.078Z,54.70
2018-03-06T12:55:18.080Z,52.70
2018-03-06T12:57:49.108Z,55.23
2018-03-06T13:00:20.086Z,52.43
2018-03-06T13:02:51.066Z,60.20
2018-03-06T13:05:22.037Z,60.73
2018-03-06T13:07:53.021Z,56.73
2018-03-06T13:10:24.090Z,57.57
2018-03-06T13:12:55.112Z,57.37
2018-03-06T13:15:26.099Z,54.90
2018-03-06T13:17:57.088Z,47.97
2018-03-06T13:20:28.071Z,54.03
2018-03-06T13:22:59.111Z,46.53
2018-03-06T13:25:30.118Z,50.90
2018-03-06T13:28:01.102Z,52.27
2018-03-06T13:30:32.110Z,48.93
2018-03-06T13:33:03.098Z,48.80
2018-03-06T13:35:34.087Z,50.37
2018-03-06T13:38:05.097Z,44.57
2018-03-06T13:40:36.074Z,49.20
2018-03-06T13:43:07.041Z,49.17
2018-03-06T13:45:38.027Z,54.43
2018-03-06T13:48:09.035Z,52.97
2018-03-06T13:50:40.016Z,52.00
2018-03-06T13:53:11.025Z,52.67
2018-03-06T13:55:42.050Z,54.13
2018-03-06T13:58:13.024Z,57.50
2018-03-06T14:00:44.029Z,53.23
2018-03-06T14:03:15.014Z,54.57
2018-03-06T14:05:46.032Z,55.73
2018-03-06T14:08:17.026Z,55.17
2018-03-06T14:10:48.001Z,51.97
2018-03-06T14:13:19.016Z,50.63
2018-03-06T14:15:50.026Z,54.97
2018-03-06T14:18:21.022Z,55.23
2018-03-06T14:20:52.012Z,62.67
2018-03-06T14:23:23.029Z,58.63
2018-03-06T14:25:54.086Z,55.10
2018-03-06T14:28:25.111Z,57.60
2018-03-06T14:30:56.152Z,58.03
2018-03-06T14:33:27.099Z,62.10
2018-03-06T14:35:58.087Z,62.53
2018-03-06T14:38:29.106Z,59.80
2018-03-06T14:41:00.120Z,58.63
2018-03-06T14:43:31.139Z,65.17
2018-03-06T14:46:02.133Z,67.10
2018-03-06T14:48:33.124Z,71.17
2018-03-06T14:51:04.145Z,69.30
2018-03-06T14:53:35.197Z,67.23
2018-03-06T14:56:06.190Z,65.80
2018-03-06T14:58:37.223Z,67.87
2018-03-06T15:01:08.224Z,61.73
2018-03-06T15:03:39.187Z,69.13
2018-03-06T15:06:10.199Z,62.63
2018-03-06T15:08:41.157Z,66.43
2018-03-06T15:11:12.148Z,67.10
2018-03-06T15:13:43.156Z,72.60
2018-03-06T15:16:14.129Z,70.80
2018-03-06T15:18:45.099Z,67.03
2018-03-06T15:21:16.063Z,72.47
2018-03-06T15:23:47.087Z,75.60
2018-03-06T15:26:18.151Z,74.83
2018-03-06T15:28:49.166Z,75.70
2018-03-06T15:31:20.165Z,75.23
2018-03-06T15:33:51.185Z,84.23
2018-03-06T15:36:22.203Z,82.20
2018-03-06T15:38:53.240Z,77.17
2018-03-06T15:41:24.258Z,81.93
2018-03-06T15:43:55.244Z,81.47
2018-03-06T15:46:26.286Z,83.33
2018-03-06T15:48:57.270Z,86.10
2018-03-06T15:51:28.321Z,92.37
2018-03-06T15:53:59.345Z,89.20
2018-03-06T15:56:30.341Z,88.87
2018-03-06T15:59:01.471Z,91.13
2018-03-06T16:01:32.490Z,84.27
2018-03-06T16:04:03.610Z,90.97
2018-03-06T16:06:34.678Z,94.70
2018-03-06T16:09:05.688Z,91.47
2018-03-06T16:11:36.724Z,100.20
2018-03-06T16:14:07.771Z,91.17
2018-03-06T16:16:38.847Z,89.47
2018-03-06T16:19:09.874Z,95.10
2018-03-06T16:21:40.886Z,93.87
2018-03-06T16:24:11.973Z,92.17
2018-03-06T16:26:43.019Z,94.43
2018-03-06T16:29:14.271Z,82.93
2018-03-06T16:31:45.310Z,92.87
2018-03-06T16:34:16.328Z,89.63
2018-03-06T16:36:47.342Z,91.00
2018-03-06T16:39:18.336Z,93.53
2018-03-06T16:41:49.397Z,96.47
2018-03-06T16:44:20.429Z,94.70
2018-03-06T16:46:51.466Z,87.20
2018-03-06T16:49:22.528Z,103.90
2018-03-06T16:51:53.570Z,98.50
2018-03-06T16:54:24.584Z,111.60
2018-03-06T16:56:55.677Z,98.00
2018-03-06T16:59:26.680Z,99.00
2018-03-06T17:01:57.690Z,105.80
2018-03-06T17:04:28.718Z,109.17
2018-03-06T17:06:59.765Z,98.97
2018-03-06T17:09:30.756Z,120.83
2018-03-06T17:12:01.836Z,112.07
2018-03-06T17:14:32.866Z,104.17
2018-03-06T17:17:03.888Z,106.23
2018-03-06T17:19:34.943Z,106.37
2018-03-06T17:22:06.014Z,96.40
2018-03-06T17:24:37.052Z,101.83
2018-03-06T17:27:08.050Z,114.23
2018-03-06T17:29:39.046Z,101.53
2018-03-06T17:32:10.523Z,108.77
2018-03-06T17:34:41.541Z,105.50
2018-03-06T17:37:12.709Z,118.70
2018-03-06T17:39:43.714Z,99.97
2018-03-06T17:42:14.784Z,106.50
2018-03-06T17:44:45.812Z,105.23
2018-03-06T17:47:16.801Z,117.40
2018-03-06T17:49:47.858Z,105.53
2018-03-06T17:52:18.881Z,104.50
2018-03-06T17:54:49.946Z,107.50
2018-03-06T17:57:20.970Z,104.43
2018-03-06T17:59:52.007Z,107.97
2018-03-06T18:02:23.011Z,118.53
2018-03-06T18:04:54.052Z,112.30
2018-03-06T18:07:25.126Z,108.07
2018-03-06T18:09:56.132Z,115.10
2018-03-06T18:12:27.153Z,109.80
2018-03-06T18:14:58.173Z,117.00
2018-03-06T18:17:29.174Z,114.53
2018-03-06T18:20:00.192Z,120.17
2018-03-06T18:22:31.250Z,117.70
2018-03-06T18:25:02.268Z,118.73
2018-03-06T18:27:33.338Z,122.70
2018-03-06T18:30:04.405Z,116.67
2018-03-06T18:32:35.485Z,118.03
2018-03-06T18:35:06.575Z,118.27
2018-03-06T18:37:37.640Z,112.90
2018-03-06T18:40:08.795Z,112.80
2018-03-06T18:42:39.792Z,124.37
2018-03-06T18:45:10.811Z,118.60
2018-03-06T18:47:41.813Z,114.77
2018-03-06T18:50:25.197Z,123.23
2018-03-06T18:52:56.230Z,107.03
2018-03-06T18:55:27.294Z,109.20
2018-03-06T18:57:58.314Z,117.30
2018-03-06T19:04:00.095Z,106.07
2018-03-06T19:06:35.021Z,120.40
2018-03-06T19:09:06.076Z,117.00
2018-03-06T19:11:37.067Z,117.43
2018-03-06T19:14:08.130Z,112.60
2018-03-06T19:16:39.149Z,116.73
2018-03-06T19:19:10.276Z,111.80
2018-03-06T19:21:41.259Z,107.53
2018-03-06T19:24:12.309Z,125.27
2018-03-06T19:26:43.366Z,114.53
2018-03-06T19:29:14.418Z,118.57
2018-03-06T19:31:45.437Z,120.10
2018-03-06T19:34:16.460Z,129.17
2018-03-06T19:36:47.469Z,118.17
2018-03-06T19:39:18.439Z,115.50
2018-03-06T19:41:49.461Z,116.00
2018-03-06T19:44:20.476Z,128.07
2018-03-06T19:46:51.485Z,115.23
2018-03-06T19:49:22.503Z,116.47
2018-03-06T19:51:53.524Z,118.17
2018-03-06T19:54:24.463Z,121.40
2018-03-06T19:56:55.494Z,126.30
2018-03-06T19:59:26.467Z,132.20
2018-03-06T20:01:57.442Z,112.67
2018-03-06T20:04:28.501Z,119.37
2018-03-06T20:06:59.487Z,129.50
2018-03-06T20:09:30.513Z,119.73
2018-03-06T20:12:01.502Z,119.10
2018-03-06T20:14:38.630Z,119.57
2018-03-06T20:17:09.617Z,117.73
2018-03-06T20:19:40.629Z,123.60
2018-03-06T20:22:11.644Z,124.90
2018-03-06T20:24:48.760Z,121.57
2018-03-06T20:27:19.834Z,117.70
2018-03-06T20:29:50.803Z,122.43
2018-03-06T20:32:28.057Z,106.83
2018-03-06T20:34:59.068Z,124.03
2018-03-06T20:37:30.073Z,126.73
2018-03-06T20:40:07.263Z,118.23
2018-03-06T20:42:38.276Z,123.37
2018-03-06T20:45:09.322Z,117.93
2018-03-06T20:47:40.319Z,133.33
2018-03-06T20:50:11.337Z,124.17
2018-03-06T20:52:48.339Z,122.80
2018-03-06T20:55:19.342Z,117.13
2018-03-06T20:57:50.309Z,129.30
2018-03-06T21:00:21.342Z,129.57
2018-03-06T21:02:52.330Z,131.43
2018-03-06T21:05:23.365Z,133.47
2018-03-06T21:07:54.329Z,121.33
2018-03-06T21:10:25.324Z,125.70
2018-03-06T21:12:56.316Z,130.20
2018-03-06T21:15:27.335Z,132.17
2018-03-06T21:17:58.377Z,127.43
2018-03-06T21:20:29.367Z,143.13
2018-03-06T21:23:00.390Z,145.00
2018-03-06T21:25:31.377Z,134.47
2018-03-06T21:28:02.392Z,130.03
2018-03-06T21:30:33.343Z,131.40
2018-03-06T21:33:04.344Z,130.30
2018-03-06T21:35:35.315Z,136.77
2018-03-06T21:38:06.333Z,135.17
2018-03-06T21:40:37.316Z,139.33
2018-03-06T21:43:08.281Z,130.67
2018-03-06T21:45:39.230Z,139.10
2018-03-06T21:48:10.221Z,133.30
2018-03-06T21:50:41.210Z,138.97
2018-03-06T21:53:12.152Z,138.67
2018-03-06T21:55:43.177Z,128.73
2018-03-06T21:58:14.173Z,133.50
2018-03-06T22:00:45.197Z,132.73
2018-03-06T22:03:16.160Z,130.40
2018-03-06T22:05:47.155Z,141.00
2018-03-06T22:08:18.172Z,120.97
2018-03-06T22:10:49.155Z,135.67
2018-03-06T22:13:20.180Z,136.77
2018-03-06T22:15:51.162Z,131.87
2018-03-06T22:18:22.191Z,130.97
2018-03-06T22:20:53.151Z,118.87
2018-03-06T22:23:24.154Z,138.97
2018-03-06T22:25:55.118Z,127.37
2018-03-06T22:28:26.160Z,122.30
2018-03-06T22:30:57.173Z,131.70
2018-03-06T22:33:28.163Z,132.83
2018-03-06T22:35:59.166Z,126.63
2018-03-06T22:38:30.163Z,134.57
2018-03-06T22:41:01.184Z,147.60
2018-03-06T22:43:32.160Z,129.87
2018-03-06T22:46:03.140Z,136.47
2018-03-06T22:48:34.146Z,131.47
2018-03-06T22:51:05.202Z,125.17
2018-03-06T22:53:36.198Z,142.00
2018-03-06T22:56:07.202Z,133.03
2018-03-06T22:58:38.233Z,127.90
2018-03-06T23:01:09.204Z,126.20
2018-03-06T23:03:40.176Z,141.20
2018-03-06T23:06:11.136Z,129.27
2018-03-06T23:08:42.155Z,134.23
2018-03-06T23:11:13.118Z,120.10
2018-03-06T23:13:44.156Z,132.10
2018-03-06T23:16:15.153Z,123.80
2018-03-06T23:18:46.166Z,122.23
2018-03-06T23:21:17.146Z,121.03
2018-03-06T23:23:48.158Z,108.83
2018-03-06T23:26:19.172Z,123.60
2018-03-06T23:28:50.151Z,117.27
2018-03-06T23:31:21.168Z,121.67
2018-03-06T23:33:52.168Z,121.60
2018-03-06T23:36:23.122Z,126.10
2018-03-06T23:38:54.156Z,101.77
2018-03-06T23:41:25.160Z,113.00
2018-03-06T23:43:56.217Z,126.10
2018-03-06T23:46:27.199Z,116.00
2018-03-06T23:48:58.250Z,121.83
2018-03-06T23:51:29.236Z,112.93
2018-03-06T23:54:00.215Z,115.10
2018-03-06T23:56:31.253Z,112.37
2018-03-06T23:59:02.275Z,108.60
